Time;durP1;ratioP1;P1;durP2;ratioP2;P2;SDS_P1;SDS_P2;PMS_P1;PMS_P2;Temp;Humidity;BMP_temperature;BMP_pressure;BME280_temperature;BME280_humidity;BME280_pressure;Samples;Min_cycle;Max_cycle;Signal;HPM_P1;HPM_P2
2022/02/22 00:02:22;;;;;;;10.38;5.38;;;;;;;1.59;78.80;97094.63;5044311;28;20044;-70
2022/02/22 00:04:49;;;;;;;12.13;5.55;;;;;;;1.61;78.68;97105.13;5046008;28;20469;-69
2022/02/22 00:07:15;;;;;;;10.68;5.68;;;;;;;1.57;78.97;97069.84;5043442;28;20049;-70
2022/02/22 00:09:41;;;;;;;10.18;5.18;;;;;;;1.53;78.99;97058.06;5042618;28;20451;-68
2022/02/22 00:12:08;;;;;;;11.43;5.55;;;;;;;1.56;78.97;97081.72;5046864;28;20052;-68
2022/02/22 00:14:34;;;;;;;11.57;5.45;;;;;;;1.53;79.02;97072.31;5048250;28;20051;-69
2022/02/22 00:17:01;;;;;;;9.75;4.97;;;;;;;1.51;79.19;97085.25;5042999;28;20051;-70
2022/02/22 00:19:28;;;;;;;9.65;4.65;;;;;;;1.52;78.99;97070.69;5046133;28;20126;-69
2022/02/22 00:21:55;;;;;;;10.13;5.35;;;;;;;1.57;79.04;97048.31;5047371;28;20069;-68
2022/02/22 00:24:21;;;;;;;10.15;5.22;;;;;;;1.62;79.15;97058.25;5063012;28;20170;-68
2022/02/22 00:26:48;;;;;;;10.10;5.22;;;;;;;1.62;79.09;97050.94;5040330;28;20080;-67
2022/02/22 00:29:14;;;;;;;10.40;5.55;;;;;;;1.58;78.97;97049.13;5045184;28;20056;-69
2022/02/22 00:31:40;;;;;;;12.38;5.57;;;;;;;1.57;78.98;97061.00;5046749;28;20598;-69
2022/02/22 00:34:07;;;;;;;11.32;6.00;;;;;;;1.60;79.14;97052.34;5046434;28;20128;-69
2022/02/22 00:36:34;;;;;;;9.52;5.28;;;;;;;1.58;79.06;97055.31;5044280;28;20079;-68
2022/02/22 00:39:02;;;;;;;10.68;5.53;;;;;;;1.65;78.91;97071.97;5043440;28;20051;-68
2022/02/22 00:41:29;;;;;;;11.50;6.00;;;;;;;1.64;78.80;97078.44;5045483;28;20049;-69
2022/02/22 00:43:55;;;;;;;10.93;5.30;;;;;;;1.64;78.60;97067.66;5044343;28;20040;-69
2022/02/22 00:46:21;;;;;;;13.82;5.47;;;;;;;1.61;78.94;97060.13;5045178;28;20057;-68
2022/02/22 00:48:47;;;;;;;10.55;5.45;;;;;;;1.65;79.03;97065.75;5046164;28;20444;-68
2022/02/22 00:51:15;;;;;;;14.38;6.15;;;;;;;1.55;79.11;97050.50;5043678;28;20040;-69
2022/02/22 00:53:40;;;;;;;12.02;5.70;;;;;;;1.51;78.84;97025.22;5044324;28;20497;-69
2022/02/22 00:56:07;;;;;;;10.02;5.43;;;;;;;1.65;79.09;97050.41;5045290;28;20107;-68
2022/02/22 00:58:33;;;;;;;11.97;5.73;;;;;;;1.61;78.90;97051.25;5046078;28;20509;-68
2022/02/22 01:00:59;;;;;;;11.45;5.80;;;;;;;1.63;79.10;97022.94;5045227;28;20407;-68
2022/02/22 01:03:26;;;;;;;12.80;6.13;;;;;;;1.60;79.24;97033.47;5027100;28;20104;-69
2022/02/22 01:05:52;;;;;;;13.43;6.38;;;;;;;1.61;79.12;97041.25;5046866;28;20048;-69
2022/02/22 01:08:18;;;;;;;12.10;5.70;;;;;;;1.65;79.32;97025.34;5041678;28;20037;-67
2022/02/22 01:10:44;;;;;;;11.45;6.40;;;;;;;1.65;79.13;97017.25;5046612;28;20076;-70
2022/02/22 01:13:11;;;;;;;11.88;6.28;;;;;;;1.60;79.08;97009.25;5044658;28;20083;-70
2022/02/22 01:15:37;;;;;;;10.77;5.87;;;;;;;1.62;79.22;97017.84;5043804;28;20099;-69
2022/02/22 01:18:04;;;;;;;11.25;5.55;;;;;;;1.69;79.00;97027.19;5044960;28;20045;-69
2022/02/22 01:20:30;;;;;;;10.60;5.28;;;;;;;1.70;78.99;97022.59;5045445;28;20075;-69
2022/02/22 01:22:56;;;;;;;11.75;5.75;;;;;;;1.77;78.91;97016.88;5043908;28;20053;-69
2022/02/22 01:25:26;;;;;;;11.13;5.57;;;;;;;1.79;78.64;97014.69;5061664;28;20056;-68
2022/02/22 01:27:52;;;;;;;11.27;5.63;;;;;;;1.77;78.79;97015.00;5047066;28;20048;-68
2022/02/22 01:30:19;;;;;;;10.65;5.40;;;;;;;1.75;78.89;97008.28;5060942;28;20058;-68
2022/02/22 01:32:45;;;;;;;12.13;5.27;;;;;;;1.79;78.83;97025.47;5045690;28;20056;-68
2022/02/22 01:35:11;;;;;;;10.38;5.35;;;;;;;1.62;78.65;96989.00;5065259;28;20045;-68
2022/02/22 01:37:37;;;;;;;11.75;5.68;;;;;;;1.77;78.78;97016.88;5047472;28;20055;-68
2022/02/22 01:40:05;;;;;;;12.70;5.68;;;;;;;1.74;78.83;97030.91;5047301;28;20037;-68
2022/02/22 01:42:31;;;;;;;9.23;4.82;;;;;;;1.60;78.87;96995.78;5049840;28;20056;-69
2022/02/22 01:44:57;;;;;;;10.57;5.65;;;;;;;1.75;79.09;97019.88;5046923;28;20508;-68
2022/02/22 01:47:24;;;;;;;15.07;6.82;;;;;;;1.73;79.05;97013.16;5046650;28;20064;-68
2022/02/22 01:49:50;;;;;;;12.43;6.05;;;;;;;1.75;78.97;97017.16;5045436;28;20040;-68
2022/02/22 01:52:17;;;;;;;10.10;4.78;;;;;;;1.77;78.98;97033.84;5049416;28;20574;-68
2022/02/22 01:54:44;;;;;;;10.43;5.55;;;;;;;1.77;79.01;97022.25;5049189;28;20049;-69
2022/02/22 01:57:11;;;;;;;12.05;6.13;;;;;;;1.83;78.84;97013.06;5048577;28;20041;-68
2022/02/22 01:59:37;;;;;;;16.77;5.78;;;;;;;1.78;79.03;97019.28;5047617;28;20059;-69
2022/02/22 02:02:04;;;;;;;11.25;5.93;;;;;;;1.82;78.91;97024.91;5048447;28;20041;-69
2022/02/22 02:04:31;;;;;;;10.70;5.50;;;;;;;1.79;79.25;97003.91;5064676;28;20048;-70
2022/02/22 02:06:58;;;;;;;13.25;5.35;;;;;;;1.83;79.11;97010.34;5049703;28;20102;-69
2022/02/22 02:09:25;;;;;;;13.02;6.05;;;;;;;1.86;78.89;97007.09;5026761;28;20420;-70
2022/02/22 02:11:54;;;;;;;11.50;5.57;;;;;;;1.93;78.61;97004.84;5048924;28;20558;-69
2022/02/22 02:14:21;;;;;;;10.88;5.50;;;;;;;1.91;78.53;96992.75;5044856;28;20051;-69
2022/02/22 02:16:47;;;;;;;11.55;5.97;;;;;;;1.96;78.52;96995.38;5049091;28;20079;-70
2022/02/22 02:19:15;;;;;;;12.52;6.45;;;;;;;1.93;78.46;96996.75;5047822;28;20040;-69
2022/02/22 02:21:43;;;;;;;11.90;5.50;;;;;;;1.89;78.58;96986.84;5049648;28;20136;-70
2022/02/22 02:24:12;;;;;;;11.35;5.65;;;;;;;1.87;78.85;96991.69;5049743;28;20069;-69
2022/02/22 02:26:39;;;;;;;11.80;5.40;;;;;;;1.90;78.81;97002.72;5045809;28;20500;-70
2022/02/22 02:29:07;;;;;;;13.45;6.28;;;;;;;1.94;78.64;97000.25;5044873;28;20091;-68
2022/02/22 02:31:32;;;;;;;;;;;;;;;1.89;78.74;97001.13;5047660;28;20045;-69
2022/02/22 02:34:00;;;;;;;10.93;5.47;;;;;;;1.84;78.90;97001.19;5064105;28;20414;-73
2022/02/22 02:36:27;;;;;;;11.73;5.28;;;;;;;1.83;79.28;96988.81;5061726;28;20517;-73
2022/02/22 02:38:53;;;;;;;18.25;5.97;;;;;;;1.83;78.94;96988.81;5063537;28;20509;-74
2022/02/22 02:41:20;;;;;;;10.35;5.35;;;;;;;1.84;78.92;96993.09;5047082;28;20148;-74
2022/02/22 02:43:46;;;;;;;10.38;5.28;;;;;;;1.79;79.20;96991.25;5047838;28;20045;-74
2022/02/22 02:46:12;;;;;;;11.60;6.07;;;;;;;1.91;79.06;96992.75;5014574;28;20052;-74
2022/02/22 02:48:38;;;;;;;11.85;5.22;;;;;;;1.89;79.27;96984.16;5045394;28;20476;-74
2022/02/22 02:51:04;;;;;;;10.73;5.60;;;;;;;1.92;78.91;96992.44;5059974;28;20054;-74
2022/02/22 02:53:31;;;;;;;11.27;5.50;;;;;;;1.93;78.90;96971.72;5046631;28;20048;-74
2022/02/22 02:55:57;;;;;;;12.63;5.90;;;;;;;1.95;78.77;96977.63;5048810;28;20045;-74
2022/02/22 02:58:24;;;;;;;10.55;5.55;;;;;;;1.88;78.85;96963.69;5014671;28;20099;-74
2022/02/22 03:00:50;;;;;;;10.40;5.57;;;;;;;1.93;79.01;96975.19;5028173;28;20037;-74
2022/02/22 03:03:16;;;;;;;12.32;5.22;;;;;;;1.91;79.07;96976.59;5043582;28;20460;-75
2022/02/22 03:05:42;;;;;;;10.73;5.78;;;;;;;1.96;79.01;96976.53;5044705;28;20505;-74
2022/02/22 03:08:08;;;;;;;12.65;5.95;;;;;;;1.95;79.14;96991.09;5045052;28;20041;-75
2022/02/22 03:10:35;;;;;;;11.82;5.35;;;;;;;1.91;79.36;96973.91;5047608;28;20111;-73
2022/02/22 03:13:01;;;;;;;11.15;5.07;;;;;;;1.89;79.68;96990.34;5045435;28;20111;-73
2022/02/22 03:15:28;;;;;;;9.88;4.90;;;;;;;1.90;79.33;96980.38;5047263;28;20041;-73
2022/02/22 03:17:54;;;;;;;10.85;5.45;;;;;;;1.89;79.56;96984.16;5048650;28;20041;-74
2022/02/22 03:20:20;;;;;;;11.38;5.82;;;;;;;1.96;79.36;96977.34;5047009;28;20049;-72
2022/02/22 03:22:47;;;;;;;11.93;5.82;;;;;;;1.94;79.67;96976.00;5031113;28;20224;-70
2022/02/22 03:25:14;;;;;;;12.80;6.03;;;;;;;1.86;79.67;96984.72;5047855;28;20140;-72
2022/02/22 03:27:40;;;;;;;14.35;5.93;;;;;;;1.92;79.52;96978.19;5047900;28;20048;-72
2022/02/22 03:30:08;;;;;;;14.65;6.28;;;;;;;1.77;79.78;96954.91;5045153;28;20051;-73
2022/02/22 03:32:35;;;;;;;14.80;6.32;;;;;;;1.88;79.94;96983.34;5064573;28;20040;-73
2022/02/22 03:35:01;;;;;;;13.07;6.10;;;;;;;1.92;79.94;96978.19;5048081;28;20065;-73
2022/02/22 03:37:27;;;;;;;13.50;6.95;;;;;;;1.89;79.66;96968.78;5048038;28;20307;-73
2022/02/22 03:39:53;;;;;;;12.80;6.45;;;;;;;1.93;79.92;96961.72;5046550;28;20132;-72
2022/02/22 03:42:19;;;;;;;15.15;7.00;;;;;;;1.98;79.98;96963.56;5029439;28;20077;-73
2022/02/22 03:44:46;;;;;;;14.82;7.32;;;;;;;2.01;79.79;96967.56;5061410;28;20052;-73
2022/02/22 03:47:12;;;;;;;15.55;7.20;;;;;;;1.94;80.02;96955.22;5061707;28;20053;-71
2022/02/22 03:49:42;;;;;;;15.60;7.25;;;;;;;1.99;80.27;96965.16;5044463;28;20050;-71
2022/02/22 03:52:08;;;;;;;14.77;7.72;;;;;;;1.93;80.37;96956.31;5027366;28;20513;-71
2022/02/22 03:54:34;;;;;;;15.13;7.78;;;;;;;1.98;80.35;96972.47;5046743;28;20056;-71
2022/02/22 03:57:00;;;;;;;14.02;7.53;;;;;;;2.02;80.46;96969.19;5046997;28;20045;-70
2022/02/22 03:59:26;;;;;;;17.58;7.47;;;;;;;2.05;80.11;96963.22;5047745;28;20040;-72
2022/02/22 04:01:54;;;;;;;18.42;8.10;;;;;;;2.03;80.27;96966.22;5045503;28;20135;-70
2022/02/22 04:04:20;;;;;;;17.42;7.60;;;;;;;2.02;80.29;96985.34;5046131;28;20128;-71
2022/02/22 04:06:47;;;;;;;16.42;8.45;;;;;;;2.03;80.64;96979.69;5044898;28;20053;-71
2022/02/22 04:09:13;;;;;;;18.35;8.05;;;;;;;2.02;80.65;96975.34;5043108;28;20075;-71
2022/02/22 04:11:39;;;;;;;14.95;8.15;;;;;;;2.02;80.70;96974.56;5047883;28;20045;-71
2022/02/22 04:14:05;;;;;;;17.80;9.35;;;;;;;2.08;80.54;96974.22;5047638;28;20047;-71
2022/02/22 04:16:31;;;;;;;18.80;9.30;;;;;;;2.10;80.22;96977.44;5043823;28;20053;-71
2022/02/22 04:18:58;;;;;;;19.17;8.93;;;;;;;2.13;80.40;96986.84;5045890;28;20440;-70
2022/02/22 04:21:24;;;;;;;16.63;9.18;;;;;;;2.08;80.27;96982.31;5059250;28;20152;-71
2022/02/22 04:23:51;;;;;;;17.05;9.00;;;;;;;2.05;80.77;96992.84;5048508;28;20135;-71
2022/02/22 04:26:17;;;;;;;19.77;10.30;;;;;;;2.06;80.75;96983.69;5046342;28;20516;-71
2022/02/22 04:28:43;;;;;;;21.42;10.63;;;;;;;2.05;81.13;96979.38;5042874;28;20560;-71
2022/02/22 04:31:09;;;;;;;19.13;9.45;;;;;;;2.05;80.99;96969.41;5047276;28;20144;-72
2022/02/22 04:33:35;;;;;;;18.00;9.43;;;;;;;2.06;81.14;96981.78;5044390;28;20122;-71
2022/02/22 04:36:01;;;;;;;23.17;10.40;;;;;;;2.03;81.27;96970.78;5047937;28;20068;-71
2022/02/22 04:38:27;;;;;;;20.98;10.70;;;;;;;2.00;81.67;96976.75;5044445;28;20141;-70
2022/02/22 04:40:54;;;;;;;19.73;10.57;;;;;;;1.98;81.60;96972.47;5045900;28;20041;-70
2022/02/22 04:43:20;;;;;;;18.93;11.07;;;;;;;2.09;81.56;96986.59;5046961;28;20045;-71
2022/02/22 04:45:46;;;;;;;19.65;10.63;;;;;;;2.13;81.25;96982.25;5046533;28;20345;-71
2022/02/22 04:48:12;;;;;;;22.38;12.18;;;;;;;2.11;81.23;96980.94;5046675;28;20045;-71
2022/02/22 04:50:39;;;;;;;22.73;10.88;;;;;;;2.19;81.24;96987.59;5061608;28;20451;-71
2022/02/22 04:53:08;;;;;;;22.65;12.38;;;;;;;2.22;81.12;96977.00;5047903;28;20421;-72
2022/02/22 04:55:34;;;;;;;24.02;11.95;;;;;;;2.17;81.06;96987.88;5047743;28;20095;-71
2022/02/22 04:58:01;;;;;;;22.77;11.80;;;;;;;2.20;81.19;96999.97;5046336;28;20144;-72
2022/02/22 05:00:27;;;;;;;22.37;11.20;;;;;;;2.18;81.45;96994.84;5047840;28;20554;-71
2022/02/22 05:02:53;;;;;;;20.02;10.13;;;;;;;2.09;81.53;96985.78;5045606;28;20059;-72
2022/02/22 05:05:19;;;;;;;21.35;11.02;;;;;;;2.11;81.63;96995.22;5046193;28;20057;-72
2022/02/22 05:07:45;;;;;;;20.05;10.27;;;;;;;2.12;81.66;97006.81;5031474;28;20540;-72
2022/02/22 05:10:12;;;;;;;21.13;10.07;;;;;;;2.12;81.54;97012.97;5049868;28;20068;-72
2022/02/22 05:12:37;;;;;;;22.52;11.52;;;;;;;2.16;81.45;97020.50;5050023;28;20053;-72
2022/02/22 05:15:05;;;;;;;17.30;8.40;;;;;;;2.13;81.61;97021.88;5049935;28;20127;-72
2022/02/22 05:17:32;;;;;;;17.20;7.80;;;;;;;2.21;81.19;97004.28;5051130;28;20147;-72
2022/02/22 05:19:59;;;;;;;19.17;8.40;;;;;;;2.24;81.02;97014.47;5049543;28;20103;-69
2022/02/22 05:22:25;;;;;;;21.48;9.45;;;;;;;2.24;80.86;97025.25;5049019;28;20048;-69
2022/02/22 05:24:51;;;;;;;22.88;8.13;;;;;;;2.23;81.04;97005.56;5050307;28;20045;-69
2022/02/22 05:27:19;;;;;;;15.07;7.07;;;;;;;2.15;81.12;97016.19;5048126;28;20045;-70
2022/02/22 05:29:45;;;;;;;17.00;8.57;;;;;;;2.23;80.99;97002.88;5049722;28;20044;-69
2022/02/22 05:32:12;;;;;;;15.18;7.53;;;;;;;2.22;80.88;97013.97;5047543;28;20151;-70
2022/02/22 05:34:38;;;;;;;13.67;5.97;;;;;;;2.18;81.09;97024.50;5049176;28;20152;-70
2022/02/22 05:37:04;;;;;;;13.27;6.38;;;;;;;2.16;81.09;97028.56;5064594;28;20130;-68
2022/02/22 05:39:30;;;;;;;10.43;5.20;;;;;;;2.18;80.96;97024.50;5048744;28;20068;-71
2022/02/22 05:41:56;;;;;;;13.65;5.63;;;;;;;2.20;80.92;97030.41;5050536;28;20056;-68
2022/02/22 05:44:23;;;;;;;12.00;6.00;;;;;;;2.24;80.96;97028.75;5064171;28;20505;-70
2022/02/22 05:46:49;;;;;;;11.63;5.53;;;;;;;2.16;80.89;97029.41;5050174;28;20425;-69
2022/02/22 05:49:15;;;;;;;13.45;5.95;;;;;;;2.16;80.82;97056.34;5050007;28;20051;-69
2022/02/22 05:51:41;;;;;;;16.95;7.05;;;;;;;2.24;80.80;97050.31;5050034;28;20052;-69
2022/02/22 05:54:07;;;;;;;15.23;6.65;;;;;;;2.19;80.62;97044.19;5050708;28;20041;-69
2022/02/22 05:56:33;;;;;;;17.73;7.38;;;;;;;2.11;80.60;97057.22;5049315;28;20505;-69
2022/02/22 05:59:02;;;;;;;15.57;6.47;;;;;;;2.20;80.72;97053.91;5051432;28;20060;-69
2022/02/22 06:01:28;;;;;;;15.25;6.90;;;;;;;2.12;80.92;97033.75;5044271;28;20048;-69
2022/02/22 06:03:54;;;;;;;16.20;7.45;;;;;;;2.18;80.67;97064.94;5050814;28;20049;-69
2022/02/22 06:06:21;;;;;;;13.60;6.68;;;;;;;2.02;81.45;97077.00;5049000;28;20481;-69
2022/02/22 06:08:47;;;;;;;14.50;7.40;;;;;;;2.01;81.25;97068.09;5050924;28;20048;-71
2022/02/22 06:11:13;;;;;;;15.38;6.72;;;;;;;2.16;81.00;97064.44;5043111;28;20469;-71
2022/02/22 06:13:39;;;;;;;17.95;7.30;;;;;;;2.18;80.81;97058.75;5041245;28;20053;-71
2022/02/22 06:16:05;;;;;;;16.67;6.97;;;;;;;2.22;80.63;97071.38;5050097;28;20139;-71
2022/02/22 06:18:31;;;;;;;14.93;6.80;;;;;;;2.19;80.34;97098.91;5047614;28;20045;-72
2022/02/22 06:20:57;;;;;;;15.70;7.82;;;;;;;2.19;80.33;97074.66;5049294;28;20141;-71
2022/02/22 06:23:24;;;;;;;16.40;7.20;;;;;;;2.15;80.63;97075.50;5064993;28;20056;-69
2022/02/22 06:25:50;;;;;;;16.45;7.60;;;;;;;2.21;79.96;97088.63;5050177;28;20102;-70
2022/02/22 06:28:16;;;;;;;16.88;6.72;;;;;;;2.18;79.98;97088.41;5051342;28;20464;-69
2022/02/22 06:30:42;;;;;;;18.15;6.97;;;;;;;2.04;80.30;97086.41;5047087;28;20073;-69
2022/02/22 06:33:08;;;;;;;12.80;5.30;;;;;;;2.08;80.02;97087.44;5052637;28;20045;-68
2022/02/22 06:35:34;;;;;;;14.02;5.97;;;;;;;2.08;80.09;97100.09;5040403;28;20041;-69
2022/02/22 06:38:01;;;;;;;12.45;5.22;;;;;;;2.13;80.04;97100.06;5052133;28;20064;-69
2022/02/22 06:40:30;;;;;;;14.20;5.28;;;;;;;2.24;79.83;97098.84;5050364;28;20048;-68
2022/02/22 06:42:56;;;;;;;11.23;4.97;;;;;;;2.38;79.53;97100.88;5050767;28;20064;-69
2022/02/22 06:45:22;;;;;;;9.40;3.80;;;;;;;2.35;79.27;97112.22;5050732;28;20462;-69
2022/02/22 06:47:49;;;;;;;11.75;4.53;;;;;;;2.51;79.06;97110.97;5057172;28;20048;-70
2022/02/22 06:50:15;;;;;;;9.57;3.58;;;;;;;2.51;78.63;97129.06;5035298;28;20135;-69
2022/02/22 06:52:42;;;;;;;23.63;4.13;;;;;;;2.54;78.27;97133.88;5050613;28;20053;-69
2022/02/22 06:55:09;;;;;;;7.55;3.03;;;;;;;2.57;78.09;97135.16;5066103;28;20488;-68
2022/02/22 06:57:36;;;;;;;10.07;3.30;;;;;;;2.50;78.25;97133.63;5049042;28;20041;-68
2022/02/22 07:00:05;;;;;;;14.63;4.20;;;;;;;2.54;78.48;97144.66;5044946;28;20414;-69
2022/02/22 07:02:32;;;;;;;8.00;3.53;;;;;;;2.54;78.34;97129.25;5048260;28;20132;-69
2022/02/22 07:04:58;;;;;;;9.10;3.10;;;;;;;2.61;77.95;97133.53;5049723;28;20095;-68
2022/02/22 07:07:25;;;;;;;13.23;3.67;;;;;;;2.70;77.91;97139.88;5049663;28;20200;-68
2022/02/22 07:09:51;;;;;;;9.68;3.63;;;;;;;2.72;77.36;97139.59;5048609;28;20144;-68
2022/02/22 07:12:17;;;;;;;10.70;3.85;;;;;;;2.71;77.50;97125.28;5029129;28;20052;-70
2022/02/22 07:14:43;;;;;;;10.15;4.32;;;;;;;2.65;77.40;97131.84;5049422;28;20424;-70
2022/02/22 07:17:10;;;;;;;30.52;5.85;;;;;;;2.62;77.42;97124.34;5048647;28;20138;-72
2022/02/22 07:19:36;;;;;;;17.67;6.50;;;;;;;2.65;77.62;97132.69;5047832;28;20076;-70
2022/02/22 07:22:04;;;;;;;21.52;7.57;;;;;;;2.72;77.33;97142.31;5046443;28;20072;-72
2022/02/22 07:24:30;;;;;;;14.68;5.20;;;;;;;2.72;77.15;97145.78;5046511;28;20049;-73
2022/02/22 07:26:56;;;;;;;11.75;5.13;;;;;;;2.64;77.26;97136.44;5026607;28;20049;-74
2022/02/22 07:29:23;;;;;;;13.43;4.72;;;;;;;2.93;77.03;97142.84;5043653;28;20053;-73
2022/02/22 07:31:50;;;;;;;12.23;3.83;;;;;;;2.98;76.74;97157.09;5049175;28;20479;-73
2022/02/22 07:34:16;;;;;;;11.30;4.10;;;;;;;2.97;76.81;97160.06;5045059;28;20506;-73
2022/02/22 07:36:43;;;;;;;9.48;3.80;;;;;;;3.03;76.74;97158.91;5048521;28;20045;-72
2022/02/22 07:39:09;;;;;;;12.40;4.47;;;;;;;3.15;76.53;97160.38;5044908;28;20061;-73
2022/02/22 07:41:36;;;;;;;13.70;4.00;;;;;;;3.20;76.43;97165.69;5064093;28;20402;-74
2022/02/22 07:44:03;;;;;;;13.30;4.17;;;;;;;3.30;76.33;97181.00;5048170;28;20056;-73
2022/02/22 07:46:29;;;;;;;;;;;;;;;3.41;75.86;97163.53;5064833;28;20053;-73
2022/02/22 07:48:56;;;;;;;19.85;14.25;;;;;;;3.45;75.69;97136.72;5048984;28;20320;-74
2022/02/22 07:51:22;;;;;;;15.23;4.60;;;;;;;3.61;74.86;97161.63;5046358;28;20128;-73
2022/02/22 07:53:51;;;;;;;10.03;3.50;;;;;;;3.66;74.74;97165.03;5057182;28;20053;-72
2022/02/22 07:56:21;;;;;;;97.90;36.75;;;;;;;3.55;74.80;97191.41;5047965;28;20311;-72
2022/02/22 07:58:47;;;;;;;22.08;9.05;;;;;;;3.41;74.74;97206.75;5044468;28;20052;-71
2022/02/22 08:01:13;;;;;;;15.52;4.18;;;;;;;3.24;75.15;97185.66;5046901;28;20053;-67
2022/02/22 08:03:44;;;;;;;14.77;4.38;;;;;;;3.30;75.13;97192.59;5045295;28;20049;-67
2022/02/22 08:06:11;;;;;;;9.38;4.20;;;;;;;3.33;74.85;97193.91;5048828;28;20527;-67
2022/02/22 08:08:38;;;;;;;10.35;4.07;;;;;;;3.26;74.97;97197.75;5049400;28;20501;-67
2022/02/22 08:11:04;;;;;;;11.90;4.47;;;;;;;3.31;75.03;97209.59;5049090;28;20048;-65
2022/02/22 08:13:31;;;;;;;11.32;3.95;;;;;;;3.28;74.86;97215.56;5047205;28;20505;-66
2022/02/22 08:15:57;;;;;;;9.98;3.90;;;;;;;3.23;74.64;97225.34;5047828;28;20099;-67
2022/02/22 08:18:23;;;;;;;10.18;3.97;;;;;;;3.23;74.53;97213.75;5047362;28;20083;-68
2022/02/22 08:20:49;;;;;;;12.45;4.07;;;;;;;3.20;74.71;97208.91;5049176;28;20131;-67
2022/02/22 08:23:15;;;;;;;8.95;3.60;;;;;;;3.25;74.50;97211.56;5047779;28;20050;-67
2022/02/22 08:25:42;;;;;;;13.60;3.97;;;;;;;3.25;74.20;97220.47;5057199;28;20085;-67
2022/02/22 08:28:10;;;;;;;11.70;4.28;;;;;;;3.12;74.12;97218.47;5049617;28;20140;-67
2022/02/22 08:30:38;;;;;;;8.32;3.55;;;;;;;3.07;74.23;97240.13;5042275;28;20075;-67
2022/02/22 08:33:05;;;;;;;11.55;3.78;;;;;;;2.96;74.73;97232.16;5048927;28;20033;-66
2022/02/22 08:35:32;;;;;;;9.25;3.80;;;;;;;3.10;74.51;97242.25;5045784;28;20041;-67
2022/02/22 08:37:58;;;;;;;17.42;6.30;;;;;;;3.14;74.05;97235.19;5046516;28;20516;-66
2022/02/22 08:40:24;;;;;;;17.27;5.47;;;;;;;3.35;73.86;97224.91;5039229;28;20057;-67
2022/02/22 08:42:51;;;;;;;16.92;6.30;;;;;;;3.24;73.69;97250.47;5045445;28;20056;-67
2022/02/22 08:45:17;;;;;;;10.33;3.57;;;;;;;3.20;73.80;97238.63;5050581;28;20544;-67
2022/02/22 08:47:43;;;;;;;13.00;4.10;;;;;;;3.24;73.86;97231.56;5042482;28;20308;-66
2022/02/22 08:50:10;;;;;;;10.27;3.20;;;;;;;3.37;73.71;97244.38;5040646;28;20509;-66
2022/02/22 08:52:36;;;;;;;9.43;3.58;;;;;;;3.35;73.44;97208.72;5044910;28;20052;-67
2022/02/22 08:55:03;;;;;;;14.40;3.65;;;;;;;3.45;73.31;97242.91;5050054;28;20091;-66
2022/02/22 08:57:29;;;;;;;8.90;2.85;;;;;;;3.40;73.05;97210.53;5045679;28;21336;-68
2022/02/22 08:59:56;;;;;;;12.32;4.00;;;;;;;3.87;72.61;97226.91;5014335;28;20048;-66
2022/02/22 09:02:22;;;;;;;8.63;3.30;;;;;;;4.14;72.02;97246.25;5091579;28;20054;-70
2022/02/22 09:04:48;;;;;;;10.25;3.80;;;;;;;4.23;71.49;97249.91;5092540;28;20093;-69
2022/02/22 09:07:14;;;;;;;8.98;3.33;;;;;;;4.32;71.24;97242.69;5091532;28;20130;-69
2022/02/22 09:09:40;;;;;;;12.10;3.70;;;;;;;4.24;71.23;97240.69;5087364;28;20097;-69
2022/02/22 09:12:07;;;;;;;8.13;3.05;;;;;;;4.26;70.92;97255.50;5088820;28;20055;-68
2022/02/22 09:14:33;;;;;;;8.17;3.70;;;;;;;4.20;71.06;97255.88;5093290;28;20039;-69
2022/02/22 09:16:59;;;;;;;8.88;3.38;;;;;;;4.16;70.57;97292.72;5091426;28;20048;-69
2022/02/22 09:19:26;;;;;;;7.68;2.83;;;;;;;4.06;70.08;97262.06;5090864;28;20113;-69
2022/02/22 09:21:52;;;;;;;10.27;3.67;;;;;;;4.14;70.27;97252.47;5090534;28;20154;-70
2022/02/22 09:24:18;;;;;;;17.13;3.55;;;;;;;4.14;70.20;97262.47;5092421;28;20098;-69
2022/02/22 09:26:45;;;;;;;11.82;3.97;;;;;;;4.10;70.37;97252.25;5092110;28;20051;-71
2022/02/22 09:29:18;;;;;;;12.05;3.60;;;;;;;4.13;70.32;97285.22;5092289;28;20040;-71
2022/02/22 09:31:49;;;;;;;14.65;4.03;;;;;;;3.95;70.16;97258.69;5090639;28;20076;-78
2022/02/22 09:34:17;;;;;;;12.05;3.90;;;;;;;3.99;69.72;97258.91;5086433;28;20105;-77
2022/02/22 09:36:43;;;;;;;11.93;3.58;;;;;;;4.06;69.65;97253.94;5102810;28;20054;-70
2022/02/22 09:39:09;;;;;;;12.98;4.07;;;;;;;4.24;69.22;97286.66;5092486;28;20067;-70
2022/02/22 09:41:35;;;;;;;10.75;3.80;;;;;;;4.18;68.63;97269.72;5107754;28;20051;-70
2022/02/22 09:44:02;;;;;;;13.25;3.97;;;;;;;4.11;69.01;97282.78;5089274;28;20056;-70
2022/02/22 09:46:30;;;;;;;12.43;4.20;;;;;;;3.98;68.46;97273.53;5090196;28;20076;-69
2022/02/22 09:48:56;;;;;;;9.75;5.38;;;;;;;4.32;68.28;97296.81;5085076;28;20075;-70
2022/02/22 09:51:23;;;;;;;10.65;3.35;;;;;;;4.70;66.79;97281.59;5089956;28;20147;-69
2022/02/22 09:53:49;;;;;;;9.55;3.63;;;;;;;4.69;66.74;97269.94;5090211;28;20138;-69
2022/02/22 09:56:15;;;;;;;14.15;5.93;;;;;;;5.18;65.27;97269.59;5089045;28;20476;-69
2022/02/22 09:58:41;;;;;;;15.65;4.63;;;;;;;5.96;63.69;97274.19;5090649;28;20576;-73
2022/02/22 10:01:08;;;;;;;8.43;3.90;;;;;;;6.51;61.92;97284.06;5086242;28;20044;-74
2022/02/22 10:03:34;;;;;;;8.23;3.08;;;;;;;6.77;60.68;97326.06;5105854;28;20089;-73
2022/02/22 10:06:02;;;;;;;8.82;3.63;;;;;;;6.76;59.45;97257.34;5062952;28;20044;-73
2022/02/22 10:08:30;;;;;;;29.05;11.70;;;;;;;6.77;59.04;97280.69;5105132;28;20464;-73
2022/02/22 10:11:01;;;;;;;12.43;3.70;;;;;;;6.92;58.75;97292.25;5088894;28;20056;-73
2022/02/22 10:13:29;;;;;;;11.48;3.97;;;;;;;7.38;57.30;97271.97;5091537;28;20056;-74
2022/02/22 10:15:55;;;;;;;8.93;3.15;;;;;;;7.06;57.41;97303.84;5086570;28;20048;-72
2022/02/22 10:18:21;;;;;;;12.00;4.47;;;;;;;6.39;58.31;97271.03;5088809;28;20076;-72
2022/02/22 10:20:48;;;;;;;9.23;3.00;;;;;;;6.45;58.10;97274.41;5087521;28;20044;-73
2022/02/22 10:23:25;;;;;;;11.07;3.42;;;;;;;6.15;59.19;97265.91;5077325;28;20044;-71
2022/02/22 10:25:56;;;;;;;11.25;5.50;;;;;;;5.70;59.59;97277.47;5087122;28;20109;-74
2022/02/22 10:28:22;;;;;;;8.90;3.53;;;;;;;5.41;60.21;97288.66;5088566;28;20565;-73
2022/02/22 10:30:50;;;;;;;9.60;4.15;;;;;;;5.66;59.54;97326.06;5088257;28;20048;-74
2022/02/22 10:33:19;;;;;;;10.77;3.40;;;;;;;6.37;57.27;97277.91;5086010;28;20039;-74
2022/02/22 10:35:47;;;;;;;10.85;4.10;;;;;;;7.13;55.55;97245.53;5084580;28;20075;-73
2022/02/22 10:38:22;;;;;;;10.85;3.58;;;;;;;7.48;54.38;97257.28;5090402;28;20040;-73
2022/02/22 10:40:58;;;;;;;11.23;3.63;;;;;;;7.63;54.91;97247.06;5080849;28;20479;-74
2022/02/22 10:43:29;;;;;;;11.10;3.88;;;;;;;7.18;55.48;97256.25;5083555;28;20047;-74
2022/02/22 10:46:01;;;;;;;10.52;3.83;;;;;;;7.23;55.62;97251.47;5084690;28;20058;-75
2022/02/22 10:48:33;;;;;;;11.05;3.70;;;;;;;7.75;54.46;97249.97;5086948;28;20070;-74
2022/02/22 10:51:02;;;;;;;13.52;4.43;;;;;;;8.17;53.45;97256.88;5087497;28;20040;-75
2022/02/22 10:53:31;;;;;;;11.48;4.60;;;;;;;7.62;54.40;97262.63;5088774;28;20055;-76
2022/02/22 10:55:59;;;;;;;10.57;3.83;;;;;;;7.76;53.27;97291.59;5084021;28;20047;-76
2022/02/22 10:58:26;;;;;;;10.45;3.40;;;;;;;7.62;54.25;97294.44;5087046;28;20044;-75
2022/02/22 11:00:52;;;;;;;10.02;3.40;;;;;;;7.16;54.71;97299.25;5088030;28;20083;-72
2022/02/22 11:03:19;;;;;;;12.65;4.60;;;;;;;6.91;54.84;97283.31;5096268;28;20689;-73
2022/02/22 11:05:48;;;;;;;9.10;3.50;;;;;;;7.74;53.50;97286.47;5089012;28;20060;-72
2022/02/22 11:08:14;;;;;;;8.38;3.28;;;;;;;7.41;52.77;97324.13;5090731;28;20044;-71
2022/02/22 11:10:50;;;;;;;14.68;3.97;;;;;;;6.77;54.35;97277.97;5106696;28;20043;-73
2022/02/22 11:13:25;;;;;;;13.02;3.38;;;;;;;6.61;54.55;97263.19;5088040;28;20192;-72
2022/02/22 11:15:51;;;;;;;12.82;4.57;;;;;;;6.09;55.54;97299.69;5090926;28;20043;-73
2022/02/22 11:18:19;;;;;;;14.13;4.15;;;;;;;5.99;55.80;97264.63;5088601;28;20566;-72
2022/02/22 11:20:46;;;;;;;17.55;4.30;;;;;;;5.86;56.30;97287.97;5087869;28;20298;-78
2022/02/22 11:23:22;;;;;;;13.23;3.63;;;;;;;5.94;56.06;97282.63;5104015;28;20055;-73
2022/02/22 11:25:49;;;;;;;12.30;3.50;;;;;;;5.69;56.37;97275.88;5089158;28;20052;-73
2022/02/22 11:28:16;;;;;;;10.30;3.38;;;;;;;5.71;56.32;97273.66;5088096;28;20056;-73
2022/02/22 11:30:43;;;;;;;10.93;3.20;;;;;;;6.04;55.90;97262.63;5073174;28;20048;-73
2022/02/22 11:33:13;;;;;;;13.02;4.47;;;;;;;6.85;54.69;97248.44;5084735;28;20449;-76